KRNC/RNC METAR and TAF weather

Enter ICAO airport designator
Station Type Date Time Source
KRNC METAR 2019/10/23 03:35 UTC NOAA

KRNC 230335Z AUTO 25004KT 10SM CLR 09/04 A3010 RMK A01


Station Type Date Time Source
KRNC Decoded METAR 2019/10/23 03:35 UTC NOAA

Station name not available
Oct 22, 2019 - 11:35 PM EDT / 2019.10.23 0335 UTC
Wind: from the WSW (250 degrees) at 5 MPH (4 KT):0
Visibility: 10 mile(s):0
Sky conditions: clear
Temperature: 48 F (9 C)
Dew Point: 39 F (4 C)
Relative Humidity: 70%
Pressure (altimeter): 30.1 in. Hg (1019 hPa)
ob: KRNC 230335Z AUTO 25004KT 10SM CLR 09/04 A3010 RMK A01
cycle: 3

Station Type Date Time Source
KRNC TAF 2009/08/31 19:45 UTC NOAA

METAR KRNC 311945Z AUTO 35008KT 10SM CLR 25/12 A3011
RMK AO1 T02500116 $

Example: see airport list